sensor_id;sensor_type;location;lat;lon;timestamp;P1;durP1;ratioP1;P2;durP2;ratioP2
21198;SDS011;10757;51.038;3.712;2022-12-07T00:01:08;13.85;;;7.00;;
21198;SDS011;10757;51.038;3.712;2022-12-07T00:03:36;15.05;;;6.30;;
21198;SDS011;10757;51.038;3.712;2022-12-07T00:06:04;10.40;;;6.10;;
21198;SDS011;10757;51.038;3.712;2022-12-07T00:08:32;11.43;;;5.75;;
21198;SDS011;10757;51.038;3.712;2022-12-07T00:11:03;9.55;;;5.10;;
21198;SDS011;10757;51.038;3.712;2022-12-07T00:13:30;15.70;;;4.97;;
21198;SDS011;10757;51.038;3.712;2022-12-07T00:16:01;7.95;;;4.13;;
21198;SDS011;10757;51.038;3.712;2022-12-07T00:18:31;11.70;;;4.70;;
21198;SDS011;10757;51.038;3.712;2022-12-07T00:21:04;9.75;;;4.45;;
21198;SDS011;10757;51.038;3.712;2022-12-07T00:23:36;10.18;;;4.32;;
21198;SDS011;10757;51.038;3.712;2022-12-07T00:26:04;9.55;;;4.35;;
21198;SDS011;10757;51.038;3.712;2022-12-07T00:28:35;8.48;;;4.30;;
21198;SDS011;10757;51.038;3.712;2022-12-07T00:31:05;8.23;;;4.20;;
21198;SDS011;10757;51.038;3.712;2022-12-07T00:33:33;12.77;;;4.20;;
21198;SDS011;10757;51.038;3.712;2022-12-07T00:36:01;9.23;;;3.70;;
21198;SDS011;10757;51.038;3.712;2022-12-07T00:38:29;10.38;;;4.30;;
21198;SDS011;10757;51.038;3.712;2022-12-07T00:40:56;9.15;;;4.22;;
21198;SDS011;10757;51.038;3.712;2022-12-07T00:43:23;14.93;;;3.42;;
21198;SDS011;10757;51.038;3.712;2022-12-07T00:45:49;10.35;;;3.72;;
21198;SDS011;10757;51.038;3.712;2022-12-07T00:48:14;8.38;;;3.22;;
21198;SDS011;10757;51.038;3.712;2022-12-07T00:50:40;7.15;;;3.33;;
21198;SDS011;10757;51.038;3.712;2022-12-07T00:53:06;10.00;;;2.83;;
21198;SDS011;10757;51.038;3.712;2022-12-07T00:55:35;5.50;;;2.55;;
21198;SDS011;10757;51.038;3.712;2022-12-07T00:58:01;14.15;;;3.08;;
21198;SDS011;10757;51.038;3.712;2022-12-07T01:00:27;12.30;;;2.88;;
21198;SDS011;10757;51.038;3.712;2022-12-07T01:02:53;6.90;;;2.85;;
21198;SDS011;10757;51.038;3.712;2022-12-07T01:05:18;6.90;;;2.55;;
21198;SDS011;10757;51.038;3.712;2022-12-07T01:07:44;6.05;;;2.60;;
21198;SDS011;10757;51.038;3.712;2022-12-07T01:10:11;9.63;;;3.05;;
21198;SDS011;10757;51.038;3.712;2022-12-07T01:12:38;10.00;;;3.55;;
21198;SDS011;10757;51.038;3.712;2022-12-07T01:15:04;9.10;;;3.85;;
21198;SDS011;10757;51.038;3.712;2022-12-07T01:17:31;12.10;;;4.22;;
21198;SDS011;10757;51.038;3.712;2022-12-07T01:19:56;9.15;;;3.53;;
21198;SDS011;10757;51.038;3.712;2022-12-07T01:22:22;8.55;;;3.58;;
21198;SDS011;10757;51.038;3.712;2022-12-07T01:24:48;8.13;;;3.72;;
21198;SDS011;10757;51.038;3.712;2022-12-07T01:27:13;9.23;;;3.58;;
21198;SDS011;10757;51.038;3.712;2022-12-07T01:29:39;11.45;;;4.70;;
21198;SDS011;10757;51.038;3.712;2022-12-07T01:32:05;11.73;;;3.88;;
21198;SDS011;10757;51.038;3.712;2022-12-07T01:34:30;8.88;;;3.83;;
21198;SDS011;10757;51.038;3.712;2022-12-07T01:36:56;10.93;;;4.30;;
21198;SDS011;10757;51.038;3.712;2022-12-07T01:39:22;12.77;;;4.50;;
21198;SDS011;10757;51.038;3.712;2022-12-07T01:41:48;11.95;;;4.78;;
21198;SDS011;10757;51.038;3.712;2022-12-07T01:46:54;10.32;;;4.93;;
21198;SDS011;10757;51.038;3.712;2022-12-07T01:49:28;8.43;;;4.57;;
21198;SDS011;10757;51.038;3.712;2022-12-07T01:52:07;8.57;;;4.82;;
21198;SDS011;10757;51.038;3.712;2022-12-07T01:54:45;8.18;;;4.45;;
21198;SDS011;10757;51.038;3.712;2022-12-07T01:57:11;11.52;;;5.13;;
21198;SDS011;10757;51.038;3.712;2022-12-07T01:59:39;10.90;;;5.53;;
21198;SDS011;10757;51.038;3.712;2022-12-07T02:02:07;16.40;;;5.90;;
21198;SDS011;10757;51.038;3.712;2022-12-07T02:04:40;13.13;;;4.85;;
21198;SDS011;10757;51.038;3.712;2022-12-07T02:07:07;11.48;;;5.25;;
21198;SDS011;10757;51.038;3.712;2022-12-07T02:09:33;11.15;;;4.82;;
21198;SDS011;10757;51.038;3.712;2022-12-07T02:11:58;11.65;;;4.85;;
21198;SDS011;10757;51.038;3.712;2022-12-07T02:14:24;18.67;;;5.45;;
21198;SDS011;10757;51.038;3.712;2022-12-07T02:28:12;10.90;;;5.18;;
21198;SDS011;10757;51.038;3.712;2022-12-07T02:30:48;7.85;;;5.10;;
21198;SDS011;10757;51.038;3.712;2022-12-07T02:33:31;7.43;;;4.30;;
21198;SDS011;10757;51.038;3.712;2022-12-07T02:36:03;13.07;;;5.38;;
21198;SDS011;10757;51.038;3.712;2022-12-07T02:41:29;13.27;;;5.10;;
21198;SDS011;10757;51.038;3.712;2022-12-07T02:44:10;16.23;;;6.20;;
21198;SDS011;10757;51.038;3.712;2022-12-07T02:46:40;13.73;;;5.22;;
21198;SDS011;10757;51.038;3.712;2022-12-07T02:49:09;12.48;;;5.18;;
21198;SDS011;10757;51.038;3.712;2022-12-07T02:51:39;10.88;;;5.18;;
21198;SDS011;10757;51.038;3.712;2022-12-07T02:54:10;14.57;;;5.68;;
21198;SDS011;10757;51.038;3.712;2022-12-07T02:56:46;15.70;;;5.70;;
21198;SDS011;10757;51.038;3.712;2022-12-07T03:07:32;15.77;;;5.15;;
21198;SDS011;10757;51.038;3.712;2022-12-07T03:13:14;10.80;;;4.70;;
21198;SDS011;10757;51.038;3.712;2022-12-07T03:16:15;8.00;;;4.82;;
21198;SDS011;10757;51.038;3.712;2022-12-07T03:18:46;10.02;;;4.82;;
21198;SDS011;10757;51.038;3.712;2022-12-07T03:21:19;11.73;;;4.38;;
21198;SDS011;10757;51.038;3.712;2022-12-07T03:23:51;10.65;;;4.32;;
21198;SDS011;10757;51.038;3.712;2022-12-07T03:26:21;12.90;;;4.97;;
21198;SDS011;10757;51.038;3.712;2022-12-07T03:28:52;13.18;;;4.90;;
21198;SDS011;10757;51.038;3.712;2022-12-07T03:31:28;9.52;;;4.38;;
21198;SDS011;10757;51.038;3.712;2022-12-07T03:34:08;11.10;;;4.03;;
21198;SDS011;10757;51.038;3.712;2022-12-07T03:36:46;11.00;;;4.63;;
21198;SDS011;10757;51.038;3.712;2022-12-07T03:42:05;13.25;;;4.15;;
21198;SDS011;10757;51.038;3.712;2022-12-07T03:44:34;9.38;;;3.45;;
21198;SDS011;10757;51.038;3.712;2022-12-07T03:47:05;10.00;;;3.25;;
21198;SDS011;10757;51.038;3.712;2022-12-07T03:50:03;10.50;;;3.65;;
21198;SDS011;10757;51.038;3.712;2022-12-07T03:52:56;10.88;;;3.65;;
21198;SDS011;10757;51.038;3.712;2022-12-07T03:55:34;10.40;;;3.78;;
21198;SDS011;10757;51.038;3.712;2022-12-07T03:58:03;8.70;;;3.50;;
21198;SDS011;10757;51.038;3.712;2022-12-07T04:00:34;10.25;;;3.25;;
21198;SDS011;10757;51.038;3.712;2022-12-07T04:02:59;10.35;;;3.20;;
21198;SDS011;10757;51.038;3.712;2022-12-07T04:05:25;7.63;;;2.95;;
21198;SDS011;10757;51.038;3.712;2022-12-07T04:07:51;7.82;;;3.13;;
21198;SDS011;10757;51.038;3.712;2022-12-07T04:10:17;10.02;;;3.88;;
21198;SDS011;10757;51.038;3.712;2022-12-07T04:12:43;10.55;;;4.00;;
21198;SDS011;10757;51.038;3.712;2022-12-07T04:15:09;11.13;;;4.22;;
21198;SDS011;10757;51.038;3.712;2022-12-07T04:17:35;9.80;;;3.28;;
21198;SDS011;10757;51.038;3.712;2022-12-07T04:20:01;10.60;;;3.15;;
21198;SDS011;10757;51.038;3.712;2022-12-07T04:22:26;17.15;;;5.18;;
21198;SDS011;10757;51.038;3.712;2022-12-07T04:24:52;12.80;;;4.65;;
21198;SDS011;10757;51.038;3.712;2022-12-07T04:27:18;26.05;;;9.80;;
21198;SDS011;10757;51.038;3.712;2022-12-07T04:29:43;22.77;;;9.55;;
21198;SDS011;10757;51.038;3.712;2022-12-07T04:32:09;17.55;;;7.63;;
21198;SDS011;10757;51.038;3.712;2022-12-07T04:34:34;9.93;;;3.70;;
21198;SDS011;10757;51.038;3.712;2022-12-07T04:37:00;13.13;;;4.00;;
21198;SDS011;10757;51.038;3.712;2022-12-07T04:39:30;8.30;;;3.50;;
21198;SDS011;10757;51.038;3.712;2022-12-07T04:41:57;22.13;;;6.82;;
21198;SDS011;10757;51.038;3.712;2022-12-07T04:44:24;23.23;;;7.70;;
21198;SDS011;10757;51.038;3.712;2022-12-07T04:46:51;18.50;;;7.10;;
21198;SDS011;10757;51.038;3.712;2022-12-07T04:49:18;31.05;;;11.00;;
21198;SDS011;10757;51.038;3.712;2022-12-07T04:51:44;10.82;;;3.70;;
21198;SDS011;10757;51.038;3.712;2022-12-07T04:54:10;10.63;;;3.25;;
21198;SDS011;10757;51.038;3.712;2022-12-07T04:56:37;9.77;;;3.20;;
21198;SDS011;10757;51.038;3.712;2022-12-07T04:59:03;7.97;;;2.70;;
21198;SDS011;10757;51.038;3.712;2022-12-07T05:01:29;9.90;;;3.40;;
21198;SDS011;10757;51.038;3.712;2022-12-07T05:03:55;8.63;;;3.08;;
21198;SDS011;10757;51.038;3.712;2022-12-07T05:06:21;8.30;;;3.13;;
21198;SDS011;10757;51.038;3.712;2022-12-07T05:08:47;8.63;;;2.92;;
21198;SDS011;10757;51.038;3.712;2022-12-07T05:11:13;9.18;;;3.90;;
21198;SDS011;10757;51.038;3.712;2022-12-07T05:13:58;9.85;;;2.38;;
21198;SDS011;10757;51.038;3.712;2022-12-07T05:16:24;12.35;;;2.70;;
21198;SDS011;10757;51.038;3.712;2022-12-07T05:18:49;18.67;;;5.82;;
21198;SDS011;10757;51.038;3.712;2022-12-07T05:21:15;17.10;;;6.10;;
21198;SDS011;10757;51.038;3.712;2022-12-07T05:23:40;12.23;;;3.40;;
21198;SDS011;10757;51.038;3.712;2022-12-07T05:26:06;9.10;;;3.40;;
21198;SDS011;10757;51.038;3.712;2022-12-07T05:28:32;13.45;;;4.32;;
21198;SDS011;10757;51.038;3.712;2022-12-07T05:30:57;23.38;;;8.02;;
21198;SDS011;10757;51.038;3.712;2022-12-07T05:33:23;20.23;;;6.10;;
21198;SDS011;10757;51.038;3.712;2022-12-07T05:35:49;13.20;;;5.10;;
21198;SDS011;10757;51.038;3.712;2022-12-07T05:38:14;13.38;;;5.53;;
21198;SDS011;10757;51.038;3.712;2022-12-07T05:40:40;16.23;;;5.25;;
21198;SDS011;10757;51.038;3.712;2022-12-07T05:43:06;9.80;;;3.35;;
21198;SDS011;10757;51.038;3.712;2022-12-07T05:45:31;17.10;;;4.88;;
21198;SDS011;10757;51.038;3.712;2022-12-07T05:47:57;10.65;;;3.97;;
21198;SDS011;10757;51.038;3.712;2022-12-07T05:50:23;6.88;;;2.83;;
21198;SDS011;10757;51.038;3.712;2022-12-07T05:52:48;10.32;;;3.08;;
21198;SDS011;10757;51.038;3.712;2022-12-07T05:55:14;9.18;;;3.60;;
21198;SDS011;10757;51.038;3.712;2022-12-07T05:57:39;13.57;;;3.67;;
21198;SDS011;10757;51.038;3.712;2022-12-07T06:00:25;14.30;;;3.60;;
21198;SDS011;10757;51.038;3.712;2022-12-07T06:02:51;7.43;;;3.17;;
21198;SDS011;10757;51.038;3.712;2022-12-07T06:05:16;9.20;;;4.22;;
21198;SDS011;10757;51.038;3.712;2022-12-07T06:07:42;16.85;;;6.35;;
21198;SDS011;10757;51.038;3.712;2022-12-07T06:10:07;10.77;;;4.05;;
21198;SDS011;10757;51.038;3.712;2022-12-07T06:12:33;12.85;;;3.80;;
21198;SDS011;10757;51.038;3.712;2022-12-07T06:14:59;9.95;;;3.80;;
21198;SDS011;10757;51.038;3.712;2022-12-07T06:17:25;13.15;;;4.22;;
21198;SDS011;10757;51.038;3.712;2022-12-07T06:19:50;9.82;;;3.25;;
21198;SDS011;10757;51.038;3.712;2022-12-07T06:22:16;10.75;;;3.50;;
21198;SDS011;10757;51.038;3.712;2022-12-07T06:24:42;13.00;;;3.35;;
21198;SDS011;10757;51.038;3.712;2022-12-07T06:27:08;10.25;;;3.10;;
21198;SDS011;10757;51.038;3.712;2022-12-07T06:29:35;7.85;;;3.08;;
21198;SDS011;10757;51.038;3.712;2022-12-07T06:32:01;12.10;;;3.67;;
21198;SDS011;10757;51.038;3.712;2022-12-07T06:34:27;12.48;;;4.25;;
21198;SDS011;10757;51.038;3.712;2022-12-07T06:36:53;8.48;;;3.50;;
21198;SDS011;10757;51.038;3.712;2022-12-07T06:39:26;11.50;;;3.83;;
21198;SDS011;10757;51.038;3.712;2022-12-07T06:41:58;9.20;;;3.58;;
21198;SDS011;10757;51.038;3.712;2022-12-07T06:44:24;16.02;;;4.18;;
21198;SDS011;10757;51.038;3.712;2022-12-07T06:46:50;22.25;;;7.50;;
21198;SDS011;10757;51.038;3.712;2022-12-07T06:49:20;40.85;;;21.60;;
21198;SDS011;10757;51.038;3.712;2022-12-07T06:51:46;27.60;;;7.72;;
21198;SDS011;10757;51.038;3.712;2022-12-07T06:54:12;13.18;;;5.32;;
21198;SDS011;10757;51.038;3.712;2022-12-07T06:56:39;15.82;;;5.68;;
21198;SDS011;10757;51.038;3.712;2022-12-07T06:59:05;11.57;;;3.50;;
21198;SDS011;10757;51.038;3.712;2022-12-07T07:01:36;12.70;;;4.20;;
21198;SDS011;10757;51.038;3.712;2022-12-07T07:04:06;16.33;;;4.32;;
21198;SDS011;10757;51.038;3.712;2022-12-07T07:06:32;8.90;;;3.88;;
21198;SDS011;10757;51.038;3.712;2022-12-07T07:08:58;11.40;;;3.55;;
21198;SDS011;10757;51.038;3.712;2022-12-07T07:14:06;11.55;;;3.65;;
21198;SDS011;10757;51.038;3.712;2022-12-07T07:16:41;11.75;;;3.95;;
21198;SDS011;10757;51.038;3.712;2022-12-07T07:19:09;12.65;;;3.75;;
21198;SDS011;10757;51.038;3.712;2022-12-07T07:21:38;9.93;;;3.60;;
21198;SDS011;10757;51.038;3.712;2022-12-07T07:24:04;16.30;;;5.07;;
21198;SDS011;10757;51.038;3.712;2022-12-07T07:26:33;17.98;;;6.15;;
21198;SDS011;10757;51.038;3.712;2022-12-07T07:28:58;22.98;;;7.30;;
21198;SDS011;10757;51.038;3.712;2022-12-07T07:31:32;23.80;;;7.75;;
21198;SDS011;10757;51.038;3.712;2022-12-07T07:34:04;20.25;;;7.28;;
21198;SDS011;10757;51.038;3.712;2022-12-07T07:36:29;20.33;;;5.50;;
21198;SDS011;10757;51.038;3.712;2022-12-07T07:39:01;29.92;;;11.65;;
21198;SDS011;10757;51.038;3.712;2022-12-07T07:41:27;17.73;;;6.05;;
21198;SDS011;10757;51.038;3.712;2022-12-07T07:43:53;13.15;;;4.43;;
21198;SDS011;10757;51.038;3.712;2022-12-07T07:46:19;16.38;;;5.03;;
21198;SDS011;10757;51.038;3.712;2022-12-07T07:51:13;15.88;;;5.32;;
21198;SDS011;10757;51.038;3.712;2022-12-07T07:53:40;12.77;;;4.80;;
21198;SDS011;10757;51.038;3.712;2022-12-07T07:56:06;13.02;;;4.05;;
21198;SDS011;10757;51.038;3.712;2022-12-07T07:58:32;13.07;;;4.32;;
21198;SDS011;10757;51.038;3.712;2022-12-07T08:01:05;12.95;;;3.60;;
21198;SDS011;10757;51.038;3.712;2022-12-07T08:03:32;16.83;;;4.50;;
21198;SDS011;10757;51.038;3.712;2022-12-07T08:05:57;48.50;;;14.88;;
21198;SDS011;10757;51.038;3.712;2022-12-07T08:08:24;15.38;;;4.60;;
21198;SDS011;10757;51.038;3.712;2022-12-07T08:10:51;24.17;;;5.10;;
21198;SDS011;10757;51.038;3.712;2022-12-07T08:15:48;21.88;;;5.15;;
21198;SDS011;10757;51.038;3.712;2022-12-07T08:20:45;20.52;;;5.90;;
21198;SDS011;10757;51.038;3.712;2022-12-07T08:25:59;20.92;;;6.78;;
21198;SDS011;10757;51.038;3.712;2022-12-07T08:28:28;20.10;;;4.78;;
21198;SDS011;10757;51.038;3.712;2022-12-07T08:30:59;14.48;;;3.83;;
21198;SDS011;10757;51.038;3.712;2022-12-07T08:33:27;17.27;;;4.00;;
21198;SDS011;10757;51.038;3.712;2022-12-07T08:48:43;21.67;;;4.15;;
21198;SDS011;10757;51.038;3.712;2022-12-07T08:54:09;12.55;;;3.15;;
21198;SDS011;10757;51.038;3.712;2022-12-07T08:59:21;9.63;;;3.85;;
21198;SDS011;10757;51.038;3.712;2022-12-07T09:01:49;9.48;;;3.42;;
21198;SDS011;10757;51.038;3.712;2022-12-07T09:04:15;16.33;;;4.55;;
21198;SDS011;10757;51.038;3.712;2022-12-07T09:06:43;11.65;;;3.65;;
21198;SDS011;10757;51.038;3.712;2022-12-07T09:09:12;8.45;;;3.20;;
21198;SDS011;10757;51.038;3.712;2022-12-07T09:11:39;16.45;;;5.35;;
21198;SDS011;10757;51.038;3.712;2022-12-07T09:14:10;14.32;;;3.15;;
21198;SDS011;10757;51.038;3.712;2022-12-07T09:19:09;11.02;;;2.72;;
21198;SDS011;10757;51.038;3.712;2022-12-07T09:21:35;11.30;;;3.22;;
21198;SDS011;10757;51.038;3.712;2022-12-07T09:24:03;13.27;;;3.72;;
21198;SDS011;10757;51.038;3.712;2022-12-07T09:26:29;16.58;;;5.68;;
21198;SDS011;10757;51.038;3.712;2022-12-07T09:32:16;14.25;;;4.13;;
21198;SDS011;10757;51.038;3.712;2022-12-07T09:34:47;16.92;;;4.47;;
21198;SDS011;10757;51.038;3.712;2022-12-07T09:37:12;18.63;;;4.97;;
21198;SDS011;10757;51.038;3.712;2022-12-07T09:39:48;27.75;;;9.63;;
21198;SDS011;10757;51.038;3.712;2022-12-07T09:42:28;32.58;;;9.35;;
21198;SDS011;10757;51.038;3.712;2022-12-07T09:45:04;16.05;;;5.53;;
21198;SDS011;10757;51.038;3.712;2022-12-07T09:50:05;12.35;;;3.67;;
21198;SDS011;10757;51.038;3.712;2022-12-07T09:52:43;15.80;;;4.18;;
21198;SDS011;10757;51.038;3.712;2022-12-07T09:55:16;19.23;;;3.75;;
21198;SDS011;10757;51.038;3.712;2022-12-07T09:58:01;9.68;;;2.80;;
21198;SDS011;10757;51.038;3.712;2022-12-07T10:00:28;13.27;;;3.65;;
21198;SDS011;10757;51.038;3.712;2022-12-07T10:03:07;9.18;;;3.47;;
21198;SDS011;10757;51.038;3.712;2022-12-07T10:05:36;12.60;;;3.65;;
21198;SDS011;10757;51.038;3.712;2022-12-07T10:08:12;13.18;;;3.53;;
21198;SDS011;10757;51.038;3.712;2022-12-07T10:10:39;13.25;;;4.43;;
21198;SDS011;10757;51.038;3.712;2022-12-07T10:13:06;12.52;;;3.05;;
21198;SDS011;10757;51.038;3.712;2022-12-07T10:24:03;11.25;;;4.10;;
21198;SDS011;10757;51.038;3.712;2022-12-07T10:26:36;9.98;;;3.22;;
21198;SDS011;10757;51.038;3.712;2022-12-07T10:31:44;10.88;;;3.28;;
21198;SDS011;10757;51.038;3.712;2022-12-07T10:34:25;10.38;;;3.20;;
21198;SDS011;10757;51.038;3.712;2022-12-07T10:50:50;10.48;;;3.00;;
21198;SDS011;10757;51.038;3.712;2022-12-07T11:10:30;12.38;;;4.65;;
21198;SDS011;10757;51.038;3.712;2022-12-07T11:24:03;14.57;;;3.80;;
21198;SDS011;10757;51.038;3.712;2022-12-07T11:29:27;11.07;;;3.80;;
21198;SDS011;10757;51.038;3.712;2022-12-07T11:35:07;12.43;;;3.75;;
21198;SDS011;10757;51.038;3.712;2022-12-07T11:37:34;10.30;;;3.70;;
21198;SDS011;10757;51.038;3.712;2022-12-07T11:43:11;13.93;;;3.90;;
21198;SDS011;10757;51.038;3.712;2022-12-07T11:45:47;7.28;;;2.38;;
21198;SDS011;10757;51.038;3.712;2022-12-07T11:50:59;21.40;;;7.72;;
21198;SDS011;10757;51.038;3.712;2022-12-07T11:53:41;42.65;;;16.40;;
21198;SDS011;10757;51.038;3.712;2022-12-07T11:56:23;15.00;;;5.75;;
21198;SDS011;10757;51.038;3.712;2022-12-07T11:59:02;10.27;;;2.63;;
21198;SDS011;10757;51.038;3.712;2022-12-07T12:01:45;6.35;;;2.40;;
21198;SDS011;10757;51.038;3.712;2022-12-07T12:04:30;12.52;;;4.35;;
21198;SDS011;10757;51.038;3.712;2022-12-07T12:07:14;10.10;;;2.65;;
21198;SDS011;10757;51.038;3.712;2022-12-07T12:10:00;10.30;;;2.67;;
21198;SDS011;10757;51.038;3.712;2022-12-07T12:20:31;8.30;;;1.92;;
21198;SDS011;10757;51.038;3.712;2022-12-07T12:25:47;8.93;;;2.35;;
21198;SDS011;10757;51.038;3.712;2022-12-07T12:28:23;8.60;;;2.50;;
21198;SDS011;10757;51.038;3.712;2022-12-07T12:31:14;9.07;;;1.70;;
21198;SDS011;10757;51.038;3.712;2022-12-07T12:33:48;11.75;;;2.28;;
21198;SDS011;10757;51.038;3.712;2022-12-07T12:36:18;7.78;;;2.22;;
21198;SDS011;10757;51.038;3.712;2022-12-07T12:51:48;7.97;;;2.80;;
21198;SDS011;10757;51.038;3.712;2022-12-07T12:56:49;13.88;;;3.03;;
21198;SDS011;10757;51.038;3.712;2022-12-07T13:26:09;10.73;;;2.97;;
21198;SDS011;10757;51.038;3.712;2022-12-07T13:28:51;9.63;;;2.58;;
21198;SDS011;10757;51.038;3.712;2022-12-07T13:31:41;10.18;;;2.45;;
21198;SDS011;10757;51.038;3.712;2022-12-07T13:37:12;8.15;;;2.60;;
21198;SDS011;10757;51.038;3.712;2022-12-07T13:39:47;7.75;;;2.75;;
21198;SDS011;10757;51.038;3.712;2022-12-07T13:42:28;10.85;;;2.80;;
21198;SDS011;10757;51.038;3.712;2022-12-07T13:44:56;9.52;;;2.70;;
21198;SDS011;10757;51.038;3.712;2022-12-07T13:53:07;8.57;;;2.72;;
21198;SDS011;10757;51.038;3.712;2022-12-07T13:55:45;13.30;;;3.80;;
21198;SDS011;10757;51.038;3.712;2022-12-07T13:58:14;13.52;;;3.15;;
21198;SDS011;10757;51.038;3.712;2022-12-07T14:00:41;10.85;;;3.03;;
21198;SDS011;10757;51.038;3.712;2022-12-07T14:05:40;7.63;;;2.72;;
21198;SDS011;10757;51.038;3.712;2022-12-07T14:08:23;13.80;;;3.58;;
21198;SDS011;10757;51.038;3.712;2022-12-07T14:13:32;14.25;;;4.68;;
21198;SDS011;10757;51.038;3.712;2022-12-07T14:19:42;8.80;;;2.83;;
21198;SDS011;10757;51.038;3.712;2022-12-07T14:22:21;7.43;;;1.90;;
21198;SDS011;10757;51.038;3.712;2022-12-07T14:24:59;7.35;;;1.35;;
21198;SDS011;10757;51.038;3.712;2022-12-07T14:28:24;5.53;;;1.35;;
21198;SDS011;10757;51.038;3.712;2022-12-07T14:33:19;6.15;;;1.27;;
21198;SDS011;10757;51.038;3.712;2022-12-07T14:35:45;4.68;;;1.67;;
21198;SDS011;10757;51.038;3.712;2022-12-07T14:38:11;5.72;;;1.13;;
21198;SDS011;10757;51.038;3.712;2022-12-07T14:40:42;5.97;;;1.10;;
21198;SDS011;10757;51.038;3.712;2022-12-07T14:43:17;5.15;;;1.23;;
21198;SDS011;10757;51.038;3.712;2022-12-07T14:45:46;3.78;;;1.23;;
21198;SDS011;10757;51.038;3.712;2022-12-07T14:48:15;10.20;;;3.55;;
21198;SDS011;10757;51.038;3.712;2022-12-07T14:50:43;6.85;;;1.73;;
21198;SDS011;10757;51.038;3.712;2022-12-07T14:53:16;5.85;;;1.38;;
21198;SDS011;10757;51.038;3.712;2022-12-07T14:55:43;8.00;;;1.98;;
21198;SDS011;10757;51.038;3.712;2022-12-07T14:58:13;7.90;;;1.90;;
21198;SDS011;10757;51.038;3.712;2022-12-07T15:00:43;6.55;;;1.70;;
21198;SDS011;10757;51.038;3.712;2022-12-07T15:03:10;7.65;;;1.65;;
21198;SDS011;10757;51.038;3.712;2022-12-07T15:05:36;7.53;;;1.80;;
21198;SDS011;10757;51.038;3.712;2022-12-07T15:08:02;7.10;;;2.08;;
21198;SDS011;10757;51.038;3.712;2022-12-07T15:10:30;8.38;;;2.97;;
21198;SDS011;10757;51.038;3.712;2022-12-07T15:13:00;8.98;;;2.10;;
21198;SDS011;10757;51.038;3.712;2022-12-07T15:15:47;11.85;;;2.60;;
21198;SDS011;10757;51.038;3.712;2022-12-07T15:18:15;11.48;;;1.90;;
21198;SDS011;10757;51.038;3.712;2022-12-07T15:20:43;6.30;;;1.80;;
21198;SDS011;10757;51.038;3.712;2022-12-07T15:23:10;9.43;;;2.35;;
21198;SDS011;10757;51.038;3.712;2022-12-07T15:25:41;14.00;;;3.58;;
21198;SDS011;10757;51.038;3.712;2022-12-07T15:28:12;6.07;;;1.83;;
21198;SDS011;10757;51.038;3.712;2022-12-07T15:30:40;7.55;;;2.25;;
21198;SDS011;10757;51.038;3.712;2022-12-07T15:33:10;9.02;;;2.33;;
21198;SDS011;10757;51.038;3.712;2022-12-07T15:35:47;6.18;;;2.08;;
21198;SDS011;10757;51.038;3.712;2022-12-07T15:38:13;6.90;;;2.47;;
21198;SDS011;10757;51.038;3.712;2022-12-07T15:40:40;6.88;;;2.30;;
21198;SDS011;10757;51.038;3.712;2022-12-07T15:43:08;8.50;;;3.17;;
21198;SDS011;10757;51.038;3.712;2022-12-07T15:45:54;16.42;;;6.55;;
21198;SDS011;10757;51.038;3.712;2022-12-07T15:48:33;13.73;;;5.22;;
21198;SDS011;10757;51.038;3.712;2022-12-07T15:51:03;11.07;;;4.72;;
21198;SDS011;10757;51.038;3.712;2022-12-07T15:53:37;10.35;;;5.15;;
21198;SDS011;10757;51.038;3.712;2022-12-07T15:58:36;11.20;;;3.45;;
21198;SDS011;10757;51.038;3.712;2022-12-07T16:01:09;10.48;;;3.60;;
21198;SDS011;10757;51.038;3.712;2022-12-07T16:03:36;14.23;;;4.80;;
21198;SDS011;10757;51.038;3.712;2022-12-07T16:06:02;8.95;;;4.20;;
21198;SDS011;10757;51.038;3.712;2022-12-07T16:08:28;11.18;;;4.63;;
21198;SDS011;10757;51.038;3.712;2022-12-07T16:10:53;15.73;;;4.72;;
21198;SDS011;10757;51.038;3.712;2022-12-07T16:13:19;15.25;;;4.65;;
21198;SDS011;10757;51.038;3.712;2022-12-07T16:15:46;11.55;;;3.60;;
21198;SDS011;10757;51.038;3.712;2022-12-07T16:18:12;11.35;;;3.20;;
21198;SDS011;10757;51.038;3.712;2022-12-07T16:20:38;14.00;;;3.03;;
21198;SDS011;10757;51.038;3.712;2022-12-07T16:23:05;10.68;;;3.60;;
21198;SDS011;10757;51.038;3.712;2022-12-07T16:25:32;13.32;;;3.38;;
21198;SDS011;10757;51.038;3.712;2022-12-07T16:27:58;11.20;;;3.85;;
21198;SDS011;10757;51.038;3.712;2022-12-07T16:30:23;15.90;;;3.80;;
21198;SDS011;10757;51.038;3.712;2022-12-07T16:32:50;9.27;;;3.17;;
21198;SDS011;10757;51.038;3.712;2022-12-07T16:35:16;13.13;;;4.30;;
21198;SDS011;10757;51.038;3.712;2022-12-07T16:37:43;11.20;;;3.58;;
21198;SDS011;10757;51.038;3.712;2022-12-07T16:40:09;12.32;;;3.58;;
21198;SDS011;10757;51.038;3.712;2022-12-07T16:42:35;16.70;;;4.40;;
21198;SDS011;10757;51.038;3.712;2022-12-07T16:45:01;16.40;;;5.97;;
21198;SDS011;10757;51.038;3.712;2022-12-07T16:47:28;14.77;;;6.45;;
21198;SDS011;10757;51.038;3.712;2022-12-07T16:49:53;11.85;;;6.03;;
21198;SDS011;10757;51.038;3.712;2022-12-07T16:52:19;15.48;;;5.85;;
21198;SDS011;10757;51.038;3.712;2022-12-07T16:54:45;11.50;;;5.00;;
21198;SDS011;10757;51.038;3.712;2022-12-07T16:57:12;17.42;;;5.80;;
21198;SDS011;10757;51.038;3.712;2022-12-07T16:59:38;17.35;;;7.40;;
21198;SDS011;10757;51.038;3.712;2022-12-07T17:02:03;14.75;;;5.97;;
21198;SDS011;10757;51.038;3.712;2022-12-07T17:04:31;12.40;;;4.97;;
21198;SDS011;10757;51.038;3.712;2022-12-07T17:06:57;13.55;;;5.25;;
21198;SDS011;10757;51.038;3.712;2022-12-07T17:09:23;11.55;;;4.88;;
21198;SDS011;10757;51.038;3.712;2022-12-07T17:11:49;15.77;;;6.50;;
21198;SDS011;10757;51.038;3.712;2022-12-07T17:14:15;14.45;;;7.22;;
21198;SDS011;10757;51.038;3.712;2022-12-07T17:16:59;14.07;;;6.03;;
21198;SDS011;10757;51.038;3.712;2022-12-07T17:19:25;16.98;;;7.20;;
21198;SDS011;10757;51.038;3.712;2022-12-07T17:21:50;16.30;;;6.88;;
21198;SDS011;10757;51.038;3.712;2022-12-07T17:24:16;20.00;;;8.07;;
21198;SDS011;10757;51.038;3.712;2022-12-07T17:26:42;12.65;;;7.53;;
21198;SDS011;10757;51.038;3.712;2022-12-07T17:29:10;19.90;;;8.20;;
21198;SDS011;10757;51.038;3.712;2022-12-07T17:31:38;16.98;;;8.48;;
21198;SDS011;10757;51.038;3.712;2022-12-07T17:34:07;14.30;;;7.20;;
21198;SDS011;10757;51.038;3.712;2022-12-07T17:36:35;18.67;;;7.82;;
21198;SDS011;10757;51.038;3.712;2022-12-07T17:39:01;16.38;;;7.80;;
21198;SDS011;10757;51.038;3.712;2022-12-07T17:41:32;15.73;;;7.68;;
21198;SDS011;10757;51.038;3.712;2022-12-07T17:44:17;19.23;;;8.48;;
21198;SDS011;10757;51.038;3.712;2022-12-07T17:46:46;20.90;;;8.30;;
21198;SDS011;10757;51.038;3.712;2022-12-07T17:49:15;15.20;;;8.02;;
21198;SDS011;10757;51.038;3.712;2022-12-07T17:51:41;19.70;;;8.07;;
21198;SDS011;10757;51.038;3.712;2022-12-07T17:54:26;18.45;;;7.70;;
21198;SDS011;10757;51.038;3.712;2022-12-07T17:56:53;21.45;;;8.15;;
21198;SDS011;10757;51.038;3.712;2022-12-07T17:59:18;17.02;;;7.30;;
21198;SDS011;10757;51.038;3.712;2022-12-07T18:01:45;14.50;;;6.80;;
21198;SDS011;10757;51.038;3.712;2022-12-07T18:04:11;15.18;;;7.60;;
21198;SDS011;10757;51.038;3.712;2022-12-07T18:06:37;15.63;;;7.15;;
21198;SDS011;10757;51.038;3.712;2022-12-07T18:09:03;18.67;;;7.78;;
21198;SDS011;10757;51.038;3.712;2022-12-07T18:11:29;13.80;;;6.57;;
21198;SDS011;10757;51.038;3.712;2022-12-07T18:13:56;16.02;;;6.90;;
21198;SDS011;10757;51.038;3.712;2022-12-07T18:16:23;15.02;;;6.45;;
21198;SDS011;10757;51.038;3.712;2022-12-07T18:18:51;10.68;;;5.65;;
21198;SDS011;10757;51.038;3.712;2022-12-07T18:21:24;13.18;;;5.32;;
21198;SDS011;10757;51.038;3.712;2022-12-07T18:23:52;15.02;;;6.57;;